Time;durP1;ratioP1;P1;durP2;ratioP2;P2;SDS_P1;SDS_P2;PMS_P1;PMS_P2;Temp;Humidity;BMP_temperature;BMP_pressure;BME280_temperature;BME280_humidity;BME280_pressure;Samples;Min_cycle;Max_cycle;Signal;HPM_P1;HPM_P2
2023/06/22 03:59:03;;;;;;;10.40;5.93;;;;;;;20.29;100.00;100645.03;5364648;28;20117;-85
2023/06/22 04:02:06;;;;;;;11.23;5.55;;;;;;;20.38;100.00;100640.03;5247214;33;33890;-85
2023/06/22 04:05:09;;;;;;;7.25;5.45;;;;;;;20.44;100.00;100643.72;5258816;33;33480;-85
2023/06/22 04:08:13;;;;;;;9.45;5.68;;;;;;;20.48;100.00;100648.50;5271596;33;33977;-85
2023/06/22 04:11:18;;;;;;;9.50;5.55;;;;;;;20.56;100.00;100650.94;5259322;33;33549;-85
2023/06/22 04:14:20;;;;;;;10.95;5.37;;;;;;;20.69;100.00;100651.75;5259205;33;33839;-85
2023/06/22 04:17:24;;;;;;;11.27;5.18;;;;;;;20.71;100.00;100647.72;5247672;33;33566;-85
2023/06/22 04:20:27;;;;;;;13.55;5.97;;;;;;;20.79;100.00;100655.53;5247859;33;33872;-84
2023/06/22 04:23:32;;;;;;;10.75;5.95;;;;;;;20.86;100.00;100652.72;5236679;33;33961;-85
2023/06/22 04:26:37;;;;;;;8.55;5.28;;;;;;;20.88;100.00;100649.72;5248850;33;33906;-87
2023/06/22 04:29:48;;;;;;;11.32;5.55;;;;;;;20.97;100.00;100664.69;5260543;33;34025;-85
2023/06/22 04:32:57;;;;;;;14.40;5.55;;;;;;;21.10;100.00;100658.16;5279049;33;33476;-85
2023/06/22 04:36:01;;;;;;;8.70;5.03;;;;;;;21.23;100.00;100655.13;5257064;33;34189;-84
2023/06/22 04:39:09;;;;;;;10.25;5.25;;;;;;;21.28;100.00;100658.81;5249586;33;33862;-85
2023/06/22 04:42:12;;;;;;;9.13;4.80;;;;;;;21.32;100.00;100661.06;5272040;33;34178;-85
2023/06/22 04:45:15;;;;;;;12.18;5.82;;;;;;;21.44;100.00;100653.69;5259603;33;33663;-85
2023/06/22 04:48:18;;;;;;;9.43;5.18;;;;;;;21.48;100.00;100654.88;5247288;33;33791;-85
2023/06/22 04:51:21;;;;;;;8.73;4.57;;;;;;;21.45;100.00;100660.84;5235771;33;33492;-84
2023/06/22 04:54:24;;;;;;;9.00;5.12;;;;;;;21.50;100.00;100660.94;5258897;33;33645;-84
2023/06/22 04:57:32;;;;;;;9.65;5.07;;;;;;;21.59;100.00;100662.22;5271629;33;35116;-85
2023/06/22 05:00:36;;;;;;;11.52;5.55;;;;;;;21.67;100.00;100660.97;5246317;33;34018;-85
2023/06/22 05:03:41;;;;;;;10.65;5.57;;;;;;;21.69;100.00;100664.31;5272089;33;34154;-85
2023/06/22 05:06:45;;;;;;;8.30;5.28;;;;;;;21.87;100.00;100666.03;5251915;33;35251;-84
2023/06/22 05:09:48;;;;;;;12.98;5.72;;;;;;;21.95;100.00;100660.97;5241820;33;34701;-84
2023/06/22 05:12:51;;;;;;;7.53;5.07;;;;;;;22.11;100.00;100664.84;5241944;33;33465;-85
2023/06/22 05:16:01;;;;;;;11.75;5.18;;;;;;;22.26;100.00;100672.53;5252777;33;33761;-85
2023/06/22 05:19:05;;;;;;;12.32;5.32;;;;;;;22.43;100.00;100672.53;5254601;33;33731;-86
2023/06/22 05:22:08;;;;;;;11.93;5.10;;;;;;;22.56;100.00;100672.19;5254014;33;33918;-85
2023/06/22 05:25:11;;;;;;;7.30;4.80;;;;;;;22.65;100.00;100678.09;5252375;33;33948;-84
2023/06/22 05:28:14;;;;;;;12.73;5.12;;;;;;;22.62;100.00;100681.34;5266271;33;34872;-85
2023/06/22 05:31:19;;;;;;;10.38;5.05;;;;;;;22.66;100.00;100679.75;5256879;33;34988;-85
2023/06/22 05:34:22;;;;;;;9.10;5.32;;;;;;;22.87;100.00;100689.97;5269571;33;34023;-85
2023/06/22 05:37:26;;;;;;;10.88;5.37;;;;;;;23.03;100.00;100688.31;5268870;33;34137;-84
2023/06/22 05:40:28;;;;;;;8.68;4.60;;;;;;;23.24;100.00;100688.59;5254653;33;33891;-87
2023/06/22 05:43:32;;;;;;;10.88;5.25;;;;;;;23.35;100.00;100695.88;5242283;34;34148;-89
2023/06/22 05:46:35;;;;;;;7.28;4.78;;;;;;;23.50;100.00;100700.75;5245227;33;34357;-89
2023/06/22 05:49:38;;;;;;;11.43;5.00;;;;;;;23.49;100.00;100701.84;5241365;33;33719;-85
2023/06/22 05:52:40;;;;;;;13.75;4.93;;;;;;;23.59;100.00;100704.69;5241721;33;34898;-85
2023/06/22 05:55:43;;;;;;;8.10;5.00;;;;;;;23.63;100.00;100705.84;5240347;33;35083;-85
2023/06/22 05:58:46;;;;;;;11.88;4.93;;;;;;;23.80;100.00;100702.22;5240451;33;34038;-85
2023/06/22 06:01:50;;;;;;;7.82;4.43;;;;;;;23.91;100.00;100712.25;5242511;33;33726;-85
2023/06/22 06:04:54;;;;;;;10.40;4.85;;;;;;;23.93;100.00;100705.41;5242497;33;34388;-85
2023/06/22 06:07:57;;;;;;;11.88;4.68;;;;;;;24.07;100.00;100710.47;5231345;34;33935;-85
2023/06/22 06:11:00;;;;;;;10.93;4.20;;;;;;;24.15;100.00;100710.84;5234770;33;33950;-85
2023/06/22 06:14:03;;;;;;;7.80;4.60;;;;;;;24.24;100.00;100713.12;5235127;33;33436;-85
2023/06/22 06:17:06;;;;;;;6.53;3.87;;;;;;;24.37;100.00;100712.72;5245714;33;33949;-85
2023/06/22 06:20:09;;;;;;;15.75;5.18;;;;;;;24.56;100.00;100705.75;5234420;34;34797;-85
2023/06/22 06:23:12;;;;;;;8.13;3.95;;;;;;;24.83;100.00;100705.69;5245497;33;34081;-85
2023/06/22 06:26:16;;;;;;;12.37;4.45;;;;;;;24.89;98.05;100714.78;5246215;33;33639;-85
2023/06/22 06:29:19;;;;;;;8.70;3.90;;;;;;;25.10;98.18;100713.84;5246099;33;34159;-85
2023/06/22 06:32:22;;;;;;;10.48;4.32;;;;;;;25.29;98.49;100699.62;5246425;33;33540;-85
2023/06/22 06:35:25;;;;;;;10.48;4.62;;;;;;;25.34;96.72;100699.69;5234573;34;34631;-84
2023/06/22 06:38:29;;;;;;;8.30;4.40;;;;;;;25.48;98.53;100689.81;5234744;34;33918;-85
2023/06/22 06:41:32;;;;;;;9.63;4.22;;;;;;;25.77;93.53;100695.72;5234833;34;33982;-84
2023/06/22 06:44:37;;;;;;;7.20;3.58;;;;;;;25.95;87.11;100697.16;5245485;33;33936;-84
2023/06/22 06:47:40;;;;;;;9.57;3.80;;;;;;;26.04;83.10;100691.13;5233852;34;33900;-84
2023/06/22 06:50:43;;;;;;;10.32;3.60;;;;;;;26.10;86.16;100693.59;5234024;34;33822;-84
2023/06/22 06:53:46;;;;;;;6.78;3.25;;;;;;;26.15;85.16;100690.84;5245370;33;33576;-84
2023/06/22 06:56:49;;;;;;;8.93;2.87;;;;;;;26.32;80.02;100693.34;5237276;33;34792;-84
2023/06/22 06:59:53;;;;;;;7.47;3.00;;;;;;;26.41;75.63;100693.63;5251404;33;33901;-84
2023/06/22 07:02:56;;;;;;;6.25;2.90;;;;;;;26.48;76.43;100690.59;5243233;33;34818;-84
2023/06/22 07:05:59;;;;;;;7.95;3.00;;;;;;;26.35;72.69;100690.03;5262406;33;34768;-85
2023/06/22 07:09:03;;;;;;;8.15;3.20;;;;;;;26.31;79.30;100683.41;5249214;33;35377;-84
2023/06/22 07:12:06;;;;;;;6.37;2.60;;;;;;;26.53;76.18;100685.09;5242358;33;34654;-84
2023/06/22 07:15:11;;;;;;;10.20;2.95;;;;;;;26.82;72.36;100686.19;5253886;33;34746;-84
2023/06/22 07:18:14;;;;;;;8.57;3.17;;;;;;;26.93;72.44;100686.97;5254523;33;34529;-84
2023/06/22 07:21:17;;;;;;;8.43;2.53;;;;;;;27.01;69.26;100683.66;5253647;33;35018;-84
2023/06/22 07:24:24;;;;;;;11.18;3.47;;;;;;;27.14;69.67;100679.47;5242544;33;33883;-84
2023/06/22 07:27:27;;;;;;;8.35;3.40;;;;;;;27.20;73.27;100680.31;5254176;33;33809;-84
2023/06/22 07:30:31;;;;;;;8.77;3.25;;;;;;;27.23;73.15;100675.06;5254215;33;34613;-84
2023/06/22 07:33:35;;;;;;;9.25;3.05;;;;;;;27.32;74.36;100673.38;5241674;33;33941;-84
2023/06/22 07:36:39;;;;;;;9.15;3.37;;;;;;;27.37;72.28;100681.63;5254234;33;33646;-84
2023/06/22 07:39:42;;;;;;;5.32;3.22;;;;;;;27.59;73.21;100681.25;5241759;33;33867;-84
2023/06/22 07:42:47;;;;;;;8.38;3.35;;;;;;;27.77;72.68;100682.53;5241454;33;34577;-84
2023/06/22 07:45:52;;;;;;;7.82;2.90;;;;;;;27.82;68.92;100670.66;5255290;33;33864;-84
2023/06/22 07:48:55;;;;;;;7.80;3.37;;;;;;;27.83;68.76;100675.06;5254919;33;34678;-86
2023/06/22 07:51:58;;;;;;;6.47;2.62;;;;;;;27.91;67.98;100670.87;5257068;33;33736;-88
2023/06/22 07:55:02;;;;;;;11.48;2.95;;;;;;;27.91;67.40;100674.47;5257729;33;34190;-88
2023/06/22 07:58:05;;;;;;;11.68;3.00;;;;;;;27.86;67.65;100670.91;5254746;33;34218;-89
2023/06/22 08:01:07;;;;;;;6.18;2.75;;;;;;;28.06;67.60;100670.78;5240556;33;34036;-85
2023/06/22 08:04:12;;;;;;;7.40;3.33;;;;;;;28.13;67.72;100667.66;5222919;33;34776;-84
2023/06/22 08:07:15;;;;;;;7.65;3.28;;;;;;;28.16;68.26;100667.09;5225459;33;33969;-85
2023/06/22 08:10:19;;;;;;;9.18;3.37;;;;;;;28.46;67.82;100657.72;5225867;33;33659;-84
2023/06/22 08:13:21;;;;;;;6.12;2.85;;;;;;;28.46;65.51;100657.72;5258042;33;34261;-84
2023/06/22 08:16:24;;;;;;;8.82;2.58;;;;;;;28.40;65.94;100656.09;5256908;33;34163;-84
2023/06/22 08:19:27;;;;;;;8.65;3.28;;;;;;;28.57;67.56;100655.69;5229786;33;34730;-84
2023/06/22 08:22:33;;;;;;;6.85;3.00;;;;;;;28.86;67.66;100655.69;5231315;33;34619;-85
2023/06/22 08:25:36;;;;;;;6.75;3.30;;;;;;;29.02;65.04;100657.22;5226643;33;33807;-85
2023/06/22 08:28:39;;;;;;;8.15;3.15;;;;;;;29.07;63.36;100654.37;5236106;33;34788;-84
2023/06/22 08:31:42;;;;;;;6.62;3.40;;;;;;;28.96;64.41;100655.59;5244876;33;33811;-85
2023/06/22 08:34:45;;;;;;;5.75;3.35;;;;;;;29.20;61.39;100657.56;5234669;33;34010;-84
2023/06/22 08:37:52;;;;;;;10.38;3.78;;;;;;;29.34;60.90;100644.63;5227245;33;33810;-85
2023/06/22 08:40:55;;;;;;;6.60;3.53;;;;;;;29.39;61.39;100648.13;5233760;33;33486;-84
2023/06/22 08:43:58;;;;;;;7.60;4.15;;;;;;;29.44;60.19;100646.44;5248195;33;34784;-84
2023/06/22 08:47:02;;;;;;;10.45;4.60;;;;;;;29.32;59.89;100639.38;5251309;33;34352;-84
2023/06/22 08:50:06;;;;;;;7.65;4.28;;;;;;;29.48;61.70;100639.16;5231336;34;34688;-84
2023/06/22 08:53:09;;;;;;;6.28;4.40;;;;;;;29.60;61.24;100642.31;5239170;33;33801;-84
2023/06/22 08:56:12;;;;;;;8.18;4.78;;;;;;;29.79;60.54;100632.09;5232600;33;33825;-84
2023/06/22 08:59:15;;;;;;;8.50;4.37;;;;;;;29.92;61.47;100633.28;5232145;34;33766;-84
2023/06/22 09:02:19;;;;;;;5.62;4.55;;;;;;;30.01;60.15;100625.94;5238638;33;34160;-84
2023/06/22 09:05:22;;;;;;;7.12;5.25;;;;;;;29.95;59.31;100627.16;5240831;33;34666;-84
2023/06/22 09:08:24;;;;;;;8.35;5.07;;;;;;;29.88;60.35;100620.31;5240575;33;34638;-84
2023/06/22 09:11:30;;;;;;;6.97;4.93;;;;;;;29.81;60.02;100621.53;5221513;33;33933;-84
2023/06/22 09:14:33;;;;;;;9.55;5.32;;;;;;;29.95;61.17;100620.75;5254338;33;34638;-84
2023/06/22 09:17:36;;;;;;;9.00;5.30;;;;;;;30.23;59.74;100618.94;5236825;33;33915;-84
2023/06/22 09:20:39;;;;;;;7.18;5.72;;;;;;;30.47;59.18;100619.59;5230003;33;33847;-84
2023/06/22 09:23:43;;;;;;;7.50;5.40;;;;;;;30.62;57.92;100615.72;5242157;33;34116;-84
2023/06/22 09:26:45;;;;;;;8.52;5.68;;;;;;;30.69;60.73;100616.16;5241297;33;34482;-84
2023/06/22 09:29:49;;;;;;;9.65;6.00;;;;;;;30.75;57.33;100611.34;5225321;34;34691;-84
2023/06/22 09:32:54;;;;;;;7.97;5.68;;;;;;;31.02;56.49;100596.63;5202323;34;33992;-84
2023/06/22 09:35:57;;;;;;;6.37;5.53;;;;;;;31.10;56.45;100598.69;5218197;33;33921;-84
2023/06/22 09:39:05;;;;;;;7.80;5.45;;;;;;;31.15;55.31;100598.59;5239416;34;34199;-85
2023/06/22 09:42:08;;;;;;;9.80;6.20;;;;;;;31.09;57.48;100601.78;5249616;33;35167;-85
2023/06/22 09:45:11;;;;;;;7.03;5.80;;;;;;;31.09;54.30;100601.78;5242730;33;34805;-84
2023/06/22 09:48:14;;;;;;;8.10;5.82;;;;;;;31.25;56.11;100593.94;5216388;34;33806;-84
2023/06/22 09:51:18;;;;;;;7.18;5.43;;;;;;;31.64;55.94;100593.34;5233248;33;33569;-84
2023/06/22 09:54:21;;;;;;;6.97;5.68;;;;;;;31.94;52.84;100593.78;5253636;33;33987;-84
2023/06/22 09:57:24;;;;;;;11.48;5.97;;;;;;;31.95;51.21;100596.25;5241602;33;34877;-84
2023/06/22 10:00:27;;;;;;;7.47;5.30;;;;;;;31.98;51.44;100597.59;5221289;34;33405;-88
2023/06/22 10:03:30;;;;;;;7.85;5.80;;;;;;;32.11;52.89;100593.91;5229059;33;32523;-88
2023/06/22 10:06:33;;;;;;;11.50;5.72;;;;;;;32.35;50.30;100595.53;5247753;33;34049;-88
2023/06/22 10:09:36;;;;;;;12.52;6.68;;;;;;;32.07;51.01;100593.72;5212609;33;35366;-89
2023/06/22 10:12:48;;;;;;;13.88;6.05;;;;;;;32.18;52.50;100597.09;5218997;33;33769;-85
2023/06/22 10:15:51;;;;;;;9.25;5.60;;;;;;;32.59;53.91;100593.25;5251827;33;33978;-85
2023/06/22 10:18:53;;;;;;;8.20;6.07;;;;;;;32.97;50.56;100590.75;5239293;33;34725;-85
2023/06/22 10:21:56;;;;;;;7.95;6.03;;;;;;;33.28;49.78;100591.84;5227931;33;34473;-84
2023/06/22 10:24:59;;;;;;;9.63;5.75;;;;;;;32.95;46.85;100595.84;5210698;34;34054;-85
2023/06/22 10:28:02;;;;;;;9.00;6.12;;;;;;;32.72;49.15;100597.88;5222372;34;33791;-84
2023/06/22 10:31:05;;;;;;;10.48;5.90;;;;;;;32.77;47.71;100591.34;5237150;34;33815;-84
2023/06/22 10:34:08;;;;;;;9.68;6.07;;;;;;;32.80;50.18;100584.31;5223506;34;33503;-85
2023/06/22 10:37:11;;;;;;;10.57;6.18;;;;;;;32.46;48.88;100581.03;5212261;34;33941;-84
2023/06/22 10:40:15;;;;;;;12.45;6.47;;;;;;;32.91;48.67;100582.87;5202041;34;33779;-84
2023/06/22 10:43:18;;;;;;;9.82;5.75;;;;;;;33.47;48.76;100581.22;5248618;33;34740;-84
2023/06/22 10:46:21;;;;;;;10.93;6.15;;;;;;;34.18;44.23;100580.06;5258787;33;34584;-84
2023/06/22 10:49:24;;;;;;;8.90;6.35;;;;;;;34.31;46.01;100567.84;5247832;33;35327;-85
2023/06/22 10:52:27;;;;;;;12.43;6.30;;;;;;;34.97;44.86;100573.84;5232407;33;34069;-84
2023/06/22 10:55:30;;;;;;;9.60;5.37;;;;;;;35.42;42.13;100570.47;5251390;33;34114;-84
2023/06/22 10:58:53;;;;;;;11.45;6.28;;;;;;;35.63;41.30;100569.69;5255239;33;34782;-85
2023/06/22 11:01:57;;;;;;;10.93;6.10;;;;;;;36.05;41.22;100564.03;5247791;33;33888;-85
2023/06/22 11:05:00;;;;;;;8.52;5.57;;;;;;;36.49;42.44;100570.78;5233118;33;33467;-85
2023/06/22 11:08:03;;;;;;;10.27;5.97;;;;;;;36.98;38.43;100565.22;5242658;33;33789;-85
2023/06/22 11:11:06;;;;;;;10.65;6.28;;;;;;;36.58;37.68;100567.91;5243803;33;33913;-85
2023/06/22 11:14:09;;;;;;;11.88;6.62;;;;;;;36.67;40.08;100565.81;5256580;33;34742;-85
2023/06/22 11:17:12;;;;;;;10.00;5.97;;;;;;;36.96;38.85;100558.31;5259649;33;33988;-84
2023/06/22 11:20:15;;;;;;;8.38;6.25;;;;;;;37.49;36.43;100555.59;5255666;33;33871;-84
2023/06/22 11:23:18;;;;;;;8.90;5.90;;;;;;;37.61;35.64;100556.34;5255398;33;33857;-84
2023/06/22 11:26:21;;;;;;;7.53;6.20;;;;;;;37.76;35.66;100556.75;5255341;33;33639;-84
2023/06/22 11:29:24;;;;;;;10.45;6.57;;;;;;;37.17;36.37;100550.59;5242875;33;33827;-84
2023/06/22 11:32:39;;;;;;;10.98;6.10;;;;;;;38.31;36.32;100535.41;5243957;33;33930;-84
2023/06/22 11:35:43;;;;;;;8.52;5.75;;;;;;;37.98;34.13;100550.59;5214587;34;33620;-84
2023/06/22 11:38:45;;;;;;;10.15;5.87;;;;;;;36.29;36.96;100541.66;5236927;34;33913;-84
2023/06/22 11:41:48;;;;;;;9.38;5.95;;;;;;;35.68;37.60;100549.03;5225810;34;34214;-84
2023/06/22 11:44:51;;;;;;;7.72;5.18;;;;;;;36.45;37.46;100544.63;5225663;34;33930;-84
2023/06/22 11:47:54;;;;;;;7.65;5.60;;;;;;;39.20;32.70;100526.34;5226478;34;33781;-84
2023/06/22 11:50:58;;;;;;;8.05;5.32;;;;;;;40.27;31.41;100530.53;5238976;34;34124;-84
2023/06/22 11:54:03;;;;;;;10.98;5.43;;;;;;;41.88;27.87;100534.91;5238049;34;34093;-85
2023/06/22 11:57:06;;;;;;;9.30;5.28;;;;;;;42.67;28.73;100524.34;5237673;34;33640;-88
2023/06/22 12:00:17;;;;;;;12.73;5.43;;;;;;;43.17;26.24;100521.87;5236484;34;34015;-88
2023/06/22 12:03:23;;;;;;;11.95;5.28;;;;;;;43.53;26.66;100528.53;5236616;34;34787;-85
2023/06/22 12:06:26;;;;;;;7.62;5.25;;;;;;;43.60;25.92;100517.22;5238299;34;34368;-85
2023/06/22 12:09:29;;;;;;;7.80;4.75;;;;;;;43.04;27.41;100518.56;5236317;34;33954;-84
2023/06/22 12:12:32;;;;;;;5.87;4.85;;;;;;;43.48;28.06;100521.22;5239017;34;34174;-84
2023/06/22 12:15:35;;;;;;;8.00;4.78;;;;;;;43.74;24.39;100513.62;5235733;34;33540;-85
2023/06/22 12:18:38;;;;;;;8.75;5.05;;;;;;;43.40;27.07;100511.06;5242761;34;35058;-84
2023/06/22 12:21:41;;;;;;;9.30;5.22;;;;;;;43.05;25.55;100502.38;5242578;34;34924;-85
2023/06/22 12:24:44;;;;;;;5.85;5.10;;;;;;;43.24;26.14;100497.22;5224814;34;34686;-87
2023/06/22 12:27:47;;;;;;;7.60;5.00;;;;;;;43.89;24.71;100498.25;5224782;34;34723;-87
2023/06/22 12:30:50;;;;;;;8.43;4.70;;;;;;;44.59;24.13;100489.41;5225319;34;33731;-87
2023/06/22 12:33:53;;;;;;;7.97;4.97;;;;;;;44.45;23.86;100480.91;5224785;34;34278;-87
2023/06/22 12:36:56;;;;;;;11.43;5.25;;;;;;;44.55;24.28;100478.06;5236559;33;33570;-87
2023/06/22 12:39:59;;;;;;;12.25;4.90;;;;;;;44.86;23.75;100484.09;5225310;34;34646;-87
2023/06/22 12:43:02;;;;;;;7.40;5.10;;;;;;;46.31;22.93;100477.25;5225432;34;34046;-87
2023/06/22 12:46:05;;;;;;;5.03;4.53;;;;;;;45.56;22.60;100481.41;5237955;34;33565;-87
2023/06/22 12:49:07;;;;;;;8.85;4.32;;;;;;;45.04;24.69;100482.00;5225540;34;35128;-87
2023/06/22 12:52:11;;;;;;;6.25;4.95;;;;;;;46.08;22.48;100483.53;5225133;34;35007;-87
2023/06/22 12:55:13;;;;;;;7.15;4.57;;;;;;;45.78;23.58;100481.25;5237624;34;33678;-87
2023/06/22 12:58:16;;;;;;;9.55;5.15;;;;;;;47.24;22.19;100467.69;5236271;34;34020;-87
2023/06/22 13:01:19;;;;;;;4.57;4.15;;;;;;;46.91;22.28;100472.97;5224730;34;33619;-87
2023/06/22 13:04:22;;;;;;;6.80;4.60;;;;;;;46.02;22.20;100477.47;5224959;34;34905;-87
2023/06/22 13:07:25;;;;;;;7.68;5.22;;;;;;;45.64;22.99;100471.59;5236604;34;33488;-87
2023/06/22 13:10:28;;;;;;;10.43;4.97;;;;;;;46.57;21.91;100458.66;5237532;34;34486;-86
2023/06/22 13:13:33;;;;;;;9.07;4.62;;;;;;;45.18;23.45;100458.41;5236187;34;33959;-87
2023/06/22 13:16:37;;;;;;;7.83;4.40;;;;;;;45.48;22.96;100457.03;5225531;34;33708;-87
2023/06/22 13:19:39;;;;;;;7.12;4.37;;;;;;;46.91;22.26;100450.19;5239043;33;34758;-86
2023/06/22 13:22:43;;;;;;;6.62;4.20;;;;;;;48.27;20.77;100453.97;5234578;33;34928;-87
2023/06/22 13:25:46;;;;;;;8.18;4.20;;;;;;;47.12;21.15;100436.91;5219217;33;34272;-86
2023/06/22 13:28:49;;;;;;;7.82;4.25;;;;;;;45.45;23.60;100450.16;5242535;33;33472;-86
2023/06/22 13:31:52;;;;;;;10.60;4.55;;;;;;;46.09;22.00;100445.28;5222267;33;33804;-86
2023/06/22 13:34:55;;;;;;;12.63;4.70;;;;;;;47.19;21.77;100439.69;5236872;33;32563;-86
2023/06/22 13:37:58;;;;;;;8.98;4.62;;;;;;;48.25;20.16;100435.66;5239632;33;33914;-87
2023/06/22 13:41:01;;;;;;;7.70;4.30;;;;;;;45.50;22.65;100436.72;5258933;33;35369;-87
2023/06/22 13:44:03;;;;;;;9.07;4.65;;;;;;;45.90;22.33;100438.13;5242096;33;35454;-87
2023/06/22 13:47:07;;;;;;;7.40;4.57;;;;;;;45.81;22.95;100430.03;5225015;33;34158;-86
2023/06/22 13:50:10;;;;;;;6.60;4.40;;;;;;;45.48;22.67;100440.78;5230720;33;33794;-86
2023/06/22 13:53:13;;;;;;;6.22;4.30;;;;;;;46.51;21.77;100435.56;5240562;33;33862;-86
2023/06/22 13:56:15;;;;;;;5.78;4.40;;;;;;;46.81;21.02;100428.34;5238363;34;34028;-86
2023/06/22 13:59:19;;;;;;;7.57;4.00;;;;;;;47.12;20.78;100422.66;5229453;33;33614;-86
2023/06/22 14:02:22;;;;;;;5.90;4.20;;;;;;;45.29;22.67;100432.00;5223372;34;34449;-86
2023/06/22 14:05:25;;;;;;;7.47;4.35;;;;;;;43.27;25.18;100419.09;5214200;34;35015;-86
2023/06/22 14:08:28;;;;;;;9.85;4.82;;;;;;;41.72;27.78;100418.41;5226507;33;34813;-86
2023/06/22 14:11:44;;;;;;;6.68;4.68;;;;;;;40.71;28.58;100422.81;5238668;33;34134;-90
2023/06/22 14:14:46;;;;;;;8.95;4.85;;;;;;;40.18;29.38;100419.97;5237702;33;33924;-86
2023/06/22 14:17:49;;;;;;;7.40;5.30;;;;;;;39.33;31.60;100420.00;5237075;34;35120;-86
2023/06/22 14:20:52;;;;;;;6.93;5.00;;;;;;;38.66;32.19;100411.69;5235374;34;33596;-85
2023/06/22 14:23:55;;;;;;;10.15;5.30;;;;;;;38.04;32.94;100408.59;5215561;33;34180;-85
2023/06/22 14:27:02;;;;;;;7.50;5.45;;;;;;;37.50;34.46;100405.53;5236566;34;34247;-86
2023/06/22 14:30:07;;;;;;;14.80;5.62;;;;;;;35.94;37.14;100403.06;5239981;33;33816;-86
2023/06/22 14:33:10;;;;;;;9.45;5.40;;;;;;;35.97;37.64;100391.16;5237698;33;34068;-86
2023/06/22 14:36:14;;;;;;;8.77;5.62;;;;;;;36.10;38.33;100390.84;5236536;34;34441;-86
2023/06/22 14:39:22;;;;;;;6.78;5.70;;;;;;;35.81;37.76;100394.66;5225223;33;33642;-85
2023/06/22 14:42:26;;;;;;;7.72;5.40;;;;;;;35.32;37.56;100385.28;5236727;33;34091;-86
2023/06/22 14:45:29;;;;;;;6.65;5.60;;;;;;;35.33;38.30;100387.72;5209267;33;162365;-86
2023/06/22 14:48:32;;;;;;;10.25;5.78;;;;;;;34.76;39.21;100388.38;5229667;33;33876;-86
2023/06/22 14:51:35;;;;;;;9.32;5.87;;;;;;;34.78;42.08;100386.06;5246851;33;33897;-86
2023/06/22 14:54:39;;;;;;;7.47;5.68;;;;;;;34.95;38.68;100388.69;5241015;33;34482;-86
2023/06/22 14:57:41;;;;;;;9.82;6.00;;;;;;;34.70;42.38;100381.34;5225574;34;34029;-86
2023/06/22 15:00:44;;;;;;;9.43;6.32;;;;;;;34.79;40.35;100381.28;5234026;34;33628;-86
2023/06/22 15:03:47;;;;;;;10.73;5.50;;;;;;;34.51;40.45;100385.38;5237058;34;33595;-85
2023/06/22 15:06:50;;;;;;;9.02;5.75;;;;;;;34.48;40.53;100374.88;5240621;34;35091;-86
2023/06/22 15:09:53;;;;;;;8.40;5.55;;;;;;;34.08;39.76;100366.09;5236286;34;34733;-85
2023/06/22 15:12:56;;;;;;;8.23;5.47;;;;;;;34.29;42.00;100366.94;5212445;34;33721;-86
2023/06/22 15:15:59;;;;;;;9.93;6.40;;;;;;;33.91;42.27;100368.94;5236217;34;34459;-86
2023/06/22 15:19:02;;;;;;;10.82;5.75;;;;;;;33.88;41.84;100364.03;5223253;34;33759;-85
2023/06/22 15:22:05;;;;;;;6.82;6.00;;;;;;;33.44;41.97;100358.56;5223873;34;34113;-85
2023/06/22 15:25:08;;;;;;;9.35;6.03;;;;;;;33.68;42.44;100354.41;5224730;34;33519;-85
2023/06/22 15:28:12;;;;;;;8.32;5.80;;;;;;;33.80;42.86;100348.94;5238433;34;33472;-85
2023/06/22 15:31:15;;;;;;;8.73;5.87;;;;;;;33.76;41.97;100348.78;5238083;34;34738;-85
2023/06/22 15:34:18;;;;;;;8.50;5.60;;;;;;;33.51;42.01;100352.44;5225514;34;33931;-86
2023/06/22 15:37:21;;;;;;;9.75;6.28;;;;;;;33.45;42.65;100354.59;5226304;34;34021;-85
2023/06/22 15:40:24;;;;;;;9.60;5.55;;;;;;;33.44;44.75;100349.37;5202904;34;34769;-85
2023/06/22 15:43:27;;;;;;;8.40;6.30;;;;;;;33.30;43.55;100363.50;5225845;34;33850;-85
2023/06/22 15:46:29;;;;;;;15.20;6.03;;;;;;;33.21;45.49;100352.37;5225295;34;34744;-85
2023/06/22 15:49:32;;;;;;;11.18;5.85;;;;;;;33.23;43.19;100355.66;5214228;34;33569;-85
